createdAt,value
2023-05-15T00:00:00.310Z,11.90
2023-05-15T00:02:27.952Z,11.63
2023-05-15T00:04:54.595Z,11.63
2023-05-15T00:07:22.222Z,11.76
2023-05-15T00:09:48.690Z,11.89
2023-05-15T00:12:16.178Z,11.90
2023-05-15T00:14:42.687Z,11.86
2023-05-15T00:17:09.887Z,11.73
2023-05-15T00:19:36.377Z,11.65
2023-05-15T00:22:02.861Z,11.65
2023-05-15T00:24:29.349Z,11.39
2023-05-15T00:26:55.955Z,11.52
2023-05-15T00:29:22.538Z,11.68
2023-05-15T00:31:49.134Z,11.75
2023-05-15T00:34:15.713Z,11.83
2023-05-15T00:36:42.183Z,11.95
2023-05-15T00:39:08.676Z,11.81
2023-05-15T00:41:36.959Z,11.73
2023-05-15T00:44:03.920Z,11.76
2023-05-15T00:46:32.028Z,11.91
2023-05-15T00:48:59.889Z,12.00
2023-05-15T00:51:27.261Z,11.87
2023-05-15T00:53:54.924Z,11.70
2023-05-15T00:56:22.266Z,11.90
2023-05-15T00:58:49.645Z,11.94
2023-05-15T01:01:17.166Z,11.97
2023-05-15T01:03:44.481Z,11.97
2023-05-15T01:06:11.465Z,11.88
2023-05-15T01:08:44.090Z,11.71
2023-05-15T01:11:12.620Z,11.74
2023-05-15T01:13:39.437Z,11.65
2023-05-15T01:16:07.432Z,11.85
2023-05-15T01:18:34.034Z,11.89
2023-05-15T01:21:45.865Z,11.70
2023-05-15T01:24:30.960Z,11.86
2023-05-15T01:27:20.591Z,11.88
2023-05-15T01:30:00.775Z,11.55
2023-05-15T01:32:50.436Z,11.73
2023-05-15T01:35:26.105Z,11.73
2023-05-15T01:38:05.125Z,11.75
2023-05-15T01:40:31.600Z,11.79
2023-05-15T01:43:05.956Z,11.79
2023-05-15T01:45:34.090Z,11.87
2023-05-15T01:48:01.998Z,11.85
2023-05-15T01:50:32.603Z,11.79
2023-05-15T01:53:02.137Z,11.77
2023-05-15T01:55:30.512Z,11.79
2023-05-15T01:58:01.171Z,11.80
2023-05-15T02:00:29.324Z,11.83
2023-05-15T02:02:57.665Z,11.84
2023-05-15T02:05:26.361Z,11.87
2023-05-15T02:07:53.678Z,11.76
2023-05-15T02:10:21.254Z,11.68
2023-05-15T02:12:49.504Z,11.80
2023-05-15T02:15:17.395Z,11.86
2023-05-15T02:17:44.083Z,11.93
2023-05-15T02:20:10.690Z,11.88
2023-05-15T02:22:37.189Z,11.88
2023-05-15T02:25:03.958Z,11.81
2023-05-15T02:27:37.048Z,11.78
2023-05-15T02:30:21.949Z,11.59
2023-05-15T02:33:11.483Z,11.63
2023-05-15T02:35:47.486Z,11.51
2023-05-15T02:38:17.378Z,11.62
2023-05-15T02:40:46.146Z,11.59
2023-05-15T02:43:14.106Z,11.67
2023-05-15T02:45:41.904Z,11.82
2023-05-15T02:48:09.178Z,11.46
2023-05-15T02:50:35.905Z,11.60
2023-05-15T02:53:10.190Z,11.43
2023-05-15T02:55:38.822Z,11.42
2023-05-15T02:58:05.816Z,11.37
2023-05-15T03:00:32.318Z,11.61
2023-05-15T03:02:59.867Z,11.55
2023-05-15T03:05:27.096Z,11.64
2023-05-15T03:07:53.920Z,11.59
2023-05-15T03:10:23.735Z,11.54
2023-05-15T03:12:50.336Z,11.63
2023-05-15T03:15:16.985Z,11.51
2023-05-15T03:17:43.537Z,11.64
2023-05-15T03:20:11.177Z,11.64
2023-05-15T03:22:37.689Z,11.69
2023-05-15T03:25:04.437Z,11.60
2023-05-15T03:27:30.904Z,11.61
2023-05-15T03:29:57.426Z,11.45
2023-05-15T03:32:23.978Z,11.53
2023-05-15T03:34:50.502Z,11.58
2023-05-15T03:37:17.041Z,11.62
2023-05-15T03:39:43.596Z,11.51
2023-05-15T03:42:10.082Z,11.52
2023-05-15T03:44:36.593Z,11.53
2023-05-15T03:47:03.163Z,11.42
2023-05-15T03:49:29.678Z,11.38
2023-05-15T03:51:57.213Z,11.45
2023-05-15T03:54:23.915Z,11.35
2023-05-15T03:56:50.580Z,11.31
2023-05-15T03:59:17.044Z,11.33
2023-05-15T04:01:59.387Z,11.34
2023-05-15T04:04:29.823Z,11.31
2023-05-15T04:06:56.316Z,11.41
2023-05-15T04:09:22.760Z,11.29
2023-05-15T04:11:49.406Z,11.20
2023-05-15T04:14:15.897Z,11.19
2023-05-15T04:16:42.537Z,11.23
2023-05-15T04:19:09.264Z,11.31
2023-05-15T04:21:35.866Z,11.29
2023-05-15T04:24:02.377Z,11.26
2023-05-15T04:26:29.574Z,11.40
2023-05-15T04:29:04.033Z,11.27
2023-05-15T04:31:31.861Z,11.29
2023-05-15T04:33:58.703Z,11.51
2023-05-15T04:36:26.215Z,11.52
2023-05-15T04:38:52.767Z,11.41
2023-05-15T04:41:19.264Z,11.46
2023-05-15T04:43:46.011Z,11.58
2023-05-15T04:46:12.557Z,11.74
2023-05-15T04:48:40.075Z,11.77
2023-05-15T04:51:07.599Z,11.83
2023-05-15T04:53:34.280Z,11.92
2023-05-15T04:56:00.811Z,11.88
2023-05-15T04:58:27.293Z,11.86
2023-05-15T05:00:53.831Z,11.86
2023-05-15T05:03:20.417Z,11.79
2023-05-15T05:05:46.932Z,11.98
2023-05-15T05:08:13.448Z,11.88
2023-05-15T05:10:39.956Z,11.80
2023-05-15T05:13:06.457Z,11.82
2023-05-15T05:15:33.016Z,11.92
2023-05-15T05:17:59.570Z,11.97
2023-05-15T05:20:26.497Z,12.07
2023-05-15T05:22:53.132Z,12.21
2023-05-15T05:25:20.020Z,12.02
2023-05-15T05:27:46.535Z,11.80
2023-05-15T05:30:13.228Z,11.97
2023-05-15T05:32:39.787Z,12.21
2023-05-15T05:35:06.565Z,12.45
2023-05-15T05:37:33.169Z,12.58
2023-05-15T05:39:59.686Z,12.96
2023-05-15T05:42:26.940Z,13.37
2023-05-15T05:44:53.488Z,13.42
2023-05-15T05:47:20.033Z,13.93
2023-05-15T05:49:48.170Z,14.09
2023-05-15T05:52:16.016Z,14.21
2023-05-15T05:54:42.780Z,13.40
2023-05-15T05:57:09.693Z,13.48
2023-05-15T05:59:36.291Z,13.59
2023-05-15T06:02:03.798Z,13.31
2023-05-15T06:04:34.130Z,13.27
2023-05-15T06:07:01.008Z,13.53
2023-05-15T06:09:27.760Z,14.01
2023-05-15T06:11:54.241Z,14.53
2023-05-15T06:14:21.289Z,15.66
2023-05-15T06:16:47.928Z,16.39
2023-05-15T06:19:14.592Z,15.90
2023-05-15T06:21:41.220Z,14.69
2023-05-15T06:24:07.770Z,14.81
2023-05-15T06:26:34.407Z,15.35
2023-05-15T06:29:00.885Z,16.54
2023-05-15T06:31:27.449Z,16.82
2023-05-15T06:33:54.922Z,17.61
2023-05-15T06:36:21.457Z,18.68
2023-05-15T06:38:47.969Z,18.20
2023-05-15T06:41:14.521Z,18.16
2023-05-15T06:43:41.103Z,18.59
2023-05-15T06:46:07.609Z,18.01
2023-05-15T06:48:34.312Z,19.03
2023-05-15T06:51:00.833Z,20.07
2023-05-15T06:53:27.306Z,20.02
2023-05-15T06:55:53.818Z,20.72
2023-05-15T06:58:20.381Z,20.55
2023-05-15T07:00:46.833Z,20.95
2023-05-15T07:03:14.501Z,21.05
2023-05-15T07:05:41.087Z,21.50
2023-05-15T07:08:07.596Z,21.48
2023-05-15T07:10:34.082Z,21.62
2023-05-15T07:13:00.559Z,21.49
2023-05-15T07:15:27.168Z,21.37
2023-05-15T07:17:53.768Z,21.75
2023-05-15T07:20:20.530Z,21.68
2023-05-15T07:22:55.518Z,21.77
2023-05-15T07:25:23.972Z,22.18
2023-05-15T07:27:50.999Z,20.77
2023-05-15T07:30:18.460Z,21.56
2023-05-15T07:32:44.984Z,21.93
2023-05-15T07:35:11.641Z,21.68
2023-05-15T07:37:38.610Z,22.11
2023-05-15T07:40:05.955Z,22.15
2023-05-15T07:42:32.427Z,22.13
2023-05-15T07:44:58.951Z,21.98
2023-05-15T07:47:25.629Z,21.26
2023-05-15T07:49:52.150Z,21.56
2023-05-15T07:52:19.269Z,22.26
2023-05-15T07:54:45.725Z,21.97
2023-05-15T07:57:13.066Z,22.50
2023-05-15T07:59:39.923Z,22.67
2023-05-15T08:02:07.252Z,22.80
2023-05-15T08:04:33.871Z,23.33
2023-05-15T08:07:00.721Z,23.13
2023-05-15T08:09:27.194Z,23.26
2023-05-15T08:11:56.446Z,23.37
2023-05-15T08:14:22.983Z,21.72
2023-05-15T08:16:50.378Z,22.02
2023-05-15T08:19:17.033Z,21.14
2023-05-15T08:21:43.637Z,20.51
2023-05-15T08:24:10.072Z,19.70
2023-05-15T08:26:36.608Z,20.25
2023-05-15T08:29:03.212Z,21.19
2023-05-15T08:31:30.754Z,20.93
2023-05-15T08:33:57.304Z,20.42
2023-05-15T08:36:24.027Z,20.20
2023-05-15T08:38:50.565Z,19.99
2023-05-15T08:41:39.989Z,19.99
2023-05-15T08:44:09.393Z,20.32
2023-05-15T08:46:36.506Z,21.34
2023-05-15T08:49:14.603Z,21.80
2023-05-15T08:51:41.400Z,21.85
2023-05-15T08:54:08.668Z,21.55
2023-05-15T08:56:36.134Z,21.34
2023-05-15T08:59:03.725Z,20.69
2023-05-15T09:01:30.595Z,20.76
2023-05-15T09:03:57.149Z,20.58
2023-05-15T09:06:25.046Z,20.90
2023-05-15T09:08:55.424Z,20.68
2023-05-15T09:11:24.432Z,20.49
2023-05-15T09:13:50.930Z,20.53
2023-05-15T09:16:17.667Z,20.26
2023-05-15T09:18:45.060Z,20.64
2023-05-15T09:21:31.569Z,22.08
2023-05-15T09:24:23.751Z,22.45
2023-05-15T09:27:08.550Z,22.87
2023-05-15T09:29:37.993Z,22.61
2023-05-15T09:32:14.552Z,22.27
2023-05-15T09:34:43.100Z,22.09
2023-05-15T09:37:11.566Z,22.00
2023-05-15T09:39:42.842Z,23.25
2023-05-15T09:42:13.296Z,22.33
2023-05-15T09:44:43.588Z,22.61
2023-05-15T09:47:12.863Z,22.47
2023-05-15T09:49:40.118Z,22.42
2023-05-15T09:52:09.876Z,23.22
2023-05-15T09:54:37.204Z,23.33
2023-05-15T09:57:12.056Z,23.68
2023-05-15T09:59:49.244Z,23.71
2023-05-15T10:02:34.608Z,23.24
2023-05-15T10:05:01.385Z,22.29
2023-05-15T10:07:32.212Z,22.46
2023-05-15T10:09:59.872Z,23.15
2023-05-15T10:12:26.881Z,23.69
2023-05-15T10:14:56.655Z,23.78
2023-05-15T10:17:23.450Z,23.91
2023-05-15T10:19:57.866Z,24.02
2023-05-15T10:22:29.621Z,23.25
2023-05-15T10:25:02.686Z,22.70
2023-05-15T10:27:31.101Z,22.66
2023-05-15T10:29:58.595Z,21.93
2023-05-15T10:32:26.210Z,21.99
2023-05-15T10:34:54.476Z,22.65
2023-05-15T10:37:21.801Z,22.87
2023-05-15T10:39:49.658Z,22.28
2023-05-15T10:42:17.126Z,22.48
2023-05-15T10:44:43.594Z,22.72
2023-05-15T10:47:10.715Z,22.68
2023-05-15T10:49:37.380Z,22.15
2023-05-15T10:52:04.093Z,21.95
2023-05-15T10:54:30.727Z,21.79
2023-05-15T10:56:57.361Z,21.83
2023-05-15T10:59:31.787Z,22.35
2023-05-15T11:02:25.704Z,22.84
2023-05-15T11:05:00.273Z,22.72
2023-05-15T11:07:27.563Z,22.99
2023-05-15T11:09:55.023Z,23.31
2023-05-15T11:12:22.197Z,22.98
2023-05-15T11:14:54.411Z,22.90
2023-05-15T11:17:23.460Z,22.64
2023-05-15T11:19:49.871Z,22.17
2023-05-15T11:22:21.649Z,22.99
2023-05-15T11:25:05.624Z,21.83
2023-05-15T11:27:43.209Z,22.14
2023-05-15T11:30:22.987Z,22.59
2023-05-15T11:33:16.391Z,22.72
2023-05-15T11:35:46.633Z,22.40
2023-05-15T11:38:16.863Z,23.09
2023-05-15T11:40:52.440Z,23.28
2023-05-15T11:43:27.125Z,22.69
2023-05-15T11:45:58.176Z,22.91
2023-05-15T11:48:36.092Z,22.62
2023-05-15T11:51:04.292Z,23.22
2023-05-15T11:53:32.067Z,22.99
2023-05-15T11:55:59.116Z,23.02
2023-05-15T11:58:26.447Z,23.05
2023-05-15T12:00:53.817Z,23.33
2023-05-15T12:03:27.703Z,23.28
2023-05-15T12:05:59.749Z,22.55
2023-05-15T12:08:37.679Z,21.53
2023-05-15T12:11:05.051Z,21.27
2023-05-15T12:13:32.925Z,20.85
2023-05-15T12:16:00.546Z,20.43
2023-05-15T12:18:33.342Z,20.52
2023-05-15T12:21:00.334Z,20.00
2023-05-15T12:23:28.392Z,19.32
2023-05-15T12:26:01.508Z,18.98
2023-05-15T12:28:29.499Z,18.85
2023-05-15T12:30:56.525Z,18.50
2023-05-15T12:33:23.960Z,18.48
2023-05-15T12:35:55.266Z,18.65
2023-05-15T12:38:24.930Z,18.43
2023-05-15T12:40:53.778Z,18.17
2023-05-15T12:43:23.564Z,18.49
2023-05-15T12:45:52.763Z,18.38
2023-05-15T12:48:19.559Z,18.55
2023-05-15T12:50:46.053Z,18.58
2023-05-15T12:53:16.537Z,18.65
2023-05-15T12:55:47.107Z,18.71
2023-05-15T12:58:15.762Z,18.83
2023-05-15T13:00:43.293Z,18.87
2023-05-15T13:03:11.484Z,19.34
2023-05-15T13:05:39.708Z,19.62
2023-05-15T13:08:09.321Z,19.65
2023-05-15T13:10:37.961Z,19.51
2023-05-15T13:13:04.518Z,19.24
2023-05-15T13:15:35.438Z,19.51
2023-05-15T13:18:13.084Z,20.15
2023-05-15T13:20:44.573Z,20.22
2023-05-15T13:23:16.088Z,20.57
2023-05-15T13:25:43.279Z,19.78
2023-05-15T13:28:11.380Z,20.35
2023-05-15T13:30:41.915Z,20.67
2023-05-15T13:33:09.728Z,20.62
2023-05-15T13:35:37.293Z,20.78
2023-05-15T13:38:04.355Z,21.00
2023-05-15T13:40:33.430Z,20.37
2023-05-15T13:42:59.969Z,20.55
2023-05-15T13:45:26.779Z,20.53
2023-05-15T13:47:54.558Z,20.29
2023-05-15T13:50:21.205Z,20.56
2023-05-15T13:52:48.790Z,20.54
2023-05-15T13:55:15.456Z,20.72
2023-05-15T13:57:43.136Z,20.43
2023-05-15T14:00:15.037Z,20.42
2023-05-15T14:02:43.518Z,20.19
2023-05-15T14:05:14.857Z,20.40
2023-05-15T14:07:42.326Z,19.58
2023-05-15T14:10:09.770Z,20.05
2023-05-15T14:12:37.358Z,19.82
2023-05-15T14:15:04.416Z,20.13
2023-05-15T14:17:32.103Z,20.49
2023-05-15T14:19:58.745Z,20.71
2023-05-15T14:22:25.413Z,20.35
2023-05-15T14:24:53.230Z,20.48
2023-05-15T14:27:20.137Z,20.12
2023-05-15T14:29:48.923Z,19.89
2023-05-15T14:32:16.429Z,20.21
2023-05-15T14:34:43.193Z,20.33
2023-05-15T14:37:09.725Z,20.17
2023-05-15T14:39:36.337Z,20.20
2023-05-15T14:42:02.845Z,20.33
2023-05-15T14:44:29.337Z,20.30
2023-05-15T14:47:16.701Z,20.39
2023-05-15T14:49:43.303Z,20.33
2023-05-15T14:52:11.641Z,20.35
2023-05-15T14:54:39.188Z,20.08
2023-05-15T14:57:06.174Z,20.09
2023-05-15T14:59:32.709Z,20.22
2023-05-15T15:01:59.285Z,20.19
2023-05-15T15:04:28.194Z,20.05
2023-05-15T15:06:57.574Z,19.87
2023-05-15T15:09:25.584Z,19.90
2023-05-15T15:11:53.665Z,19.85
2023-05-15T15:14:20.405Z,19.97
2023-05-15T15:16:47.207Z,20.07
2023-05-15T15:19:16.123Z,20.09
2023-05-15T15:21:45.171Z,19.89
2023-05-15T15:24:11.645Z,19.87
2023-05-15T15:26:38.125Z,20.00
2023-05-15T15:29:04.620Z,19.96
2023-05-15T15:31:31.673Z,20.01
2023-05-15T15:33:58.794Z,19.34
2023-05-15T15:36:25.990Z,19.27
2023-05-15T15:38:52.522Z,19.38
2023-05-15T15:41:21.562Z,19.67
2023-05-15T15:43:48.337Z,19.51
2023-05-15T15:46:14.970Z,19.32
2023-05-15T15:48:41.636Z,19.88
2023-05-15T15:51:08.270Z,19.79
2023-05-15T15:53:34.934Z,20.16
2023-05-15T15:56:01.615Z,19.71
2023-05-15T15:58:28.893Z,19.46
2023-05-15T16:00:55.625Z,19.56
2023-05-15T16:03:22.272Z,19.91
2023-05-15T16:05:48.953Z,19.86
2023-05-15T16:08:15.466Z,19.72
2023-05-15T16:10:42.013Z,19.75
2023-05-15T16:13:09.367Z,19.67
2023-05-15T16:15:35.852Z,19.21
2023-05-15T16:18:02.385Z,19.75
2023-05-15T16:20:29.288Z,19.75
2023-05-15T16:22:56.298Z,19.81
2023-05-15T16:25:22.903Z,19.84
2023-05-15T16:27:49.491Z,19.88
2023-05-15T16:30:33.799Z,19.86
2023-05-15T16:33:41.281Z,19.64
2023-05-15T16:36:07.967Z,19.67
2023-05-15T16:38:34.700Z,19.51
2023-05-15T16:41:02.184Z,19.49
2023-05-15T16:43:28.906Z,19.48
2023-05-15T16:45:55.565Z,19.44
2023-05-15T16:48:22.964Z,19.33
2023-05-15T16:50:49.482Z,19.20
2023-05-15T16:53:16.032Z,19.18
2023-05-15T16:55:42.571Z,19.14
2023-05-15T16:58:09.052Z,19.20
2023-05-15T17:00:35.681Z,19.13
2023-05-15T17:03:02.281Z,19.21
2023-05-15T17:05:28.816Z,19.23
2023-05-15T17:07:55.260Z,19.28
2023-05-15T17:10:21.809Z,19.24
2023-05-15T17:12:48.329Z,19.23
2023-05-15T17:15:14.874Z,19.11
2023-05-15T17:17:41.527Z,19.01
2023-05-15T17:20:08.603Z,19.00
2023-05-15T17:22:35.127Z,18.87
2023-05-15T17:25:01.687Z,18.84
2023-05-15T17:27:28.264Z,18.81
2023-05-15T17:29:55.011Z,18.67
2023-05-15T17:32:22.066Z,18.67
2023-05-15T17:34:52.560Z,18.52
2023-05-15T17:37:19.450Z,18.58
2023-05-15T17:39:46.184Z,18.46
2023-05-15T17:42:12.747Z,18.41
2023-05-15T17:44:39.271Z,18.35
2023-05-15T17:47:05.894Z,18.24
2023-05-15T17:49:34.188Z,18.12
2023-05-15T17:52:00.766Z,18.05
2023-05-15T17:54:27.433Z,18.12
2023-05-15T17:56:53.922Z,18.10
2023-05-15T17:59:20.444Z,18.09
2023-05-15T18:01:46.984Z,18.00
2023-05-15T18:04:13.523Z,17.83
2023-05-15T18:06:40.493Z,17.95
2023-05-15T18:09:07.758Z,18.06
2023-05-15T18:11:34.288Z,17.79
2023-05-15T18:14:00.930Z,17.65
2023-05-15T18:16:27.938Z,17.54
2023-05-15T18:18:54.551Z,17.57
2023-05-15T18:21:21.263Z,17.40
2023-05-15T18:23:47.859Z,17.29
2023-05-15T18:26:14.382Z,17.23
2023-05-15T18:28:40.961Z,17.21
2023-05-15T18:31:07.579Z,16.94
2023-05-15T18:33:34.267Z,16.97
2023-05-15T18:36:05.259Z,17.05
2023-05-15T18:38:33.349Z,16.92
2023-05-15T18:40:59.839Z,16.86
2023-05-15T18:43:26.338Z,16.65
2023-05-15T18:45:54.174Z,16.72
2023-05-15T18:48:20.833Z,16.73
2023-05-15T18:50:47.313Z,16.71
2023-05-15T18:53:13.879Z,16.42
2023-05-15T18:55:40.380Z,16.46
2023-05-15T18:58:06.861Z,16.41
2023-05-15T19:00:38.644Z,16.44
2023-05-15T19:03:06.441Z,16.27
2023-05-15T19:05:34.134Z,16.11
2023-05-15T19:08:01.345Z,16.24
2023-05-15T19:10:29.484Z,16.32
2023-05-15T19:12:57.034Z,16.29
2023-05-15T19:15:24.755Z,16.10
2023-05-15T19:17:51.817Z,15.92
2023-05-15T19:20:18.511Z,16.13
2023-05-15T19:22:45.017Z,16.11
2023-05-15T19:25:11.789Z,16.12
2023-05-15T19:27:38.272Z,15.99
2023-05-15T19:30:07.023Z,15.99
2023-05-15T19:32:34.347Z,16.05
2023-05-15T19:35:00.981Z,15.86
2023-05-15T19:37:27.626Z,15.74
2023-05-15T19:39:54.174Z,15.73
2023-05-15T19:42:20.748Z,15.68
2023-05-15T19:44:47.212Z,15.56
2023-05-15T19:47:13.696Z,15.47
2023-05-15T19:49:40.370Z,15.36
2023-05-15T19:52:07.467Z,15.18
2023-05-15T19:54:33.991Z,15.13
2023-05-15T19:57:02.912Z,15.34
2023-05-15T19:59:29.927Z,15.20
2023-05-15T20:01:56.692Z,15.25
2023-05-15T20:04:23.305Z,15.32
2023-05-15T20:06:49.856Z,15.38
2023-05-15T20:09:16.402Z,15.17
2023-05-15T20:11:43.111Z,15.08
2023-05-15T20:14:09.571Z,15.18
2023-05-15T20:16:36.988Z,15.14
2023-05-15T20:19:04.114Z,15.07
2023-05-15T20:21:31.950Z,15.21
2023-05-15T20:23:58.624Z,15.18
2023-05-15T20:26:25.104Z,14.93
2023-05-15T20:28:52.779Z,15.07
2023-05-15T20:31:19.425Z,15.04
2023-05-15T20:33:46.085Z,14.96
2023-05-15T20:36:12.646Z,15.01
2023-05-15T20:38:40.509Z,14.83
2023-05-15T20:41:07.293Z,14.86
2023-05-15T20:43:33.781Z,14.91
2023-05-15T20:46:00.505Z,14.86
2023-05-15T20:48:26.999Z,14.99
2023-05-15T20:50:53.506Z,14.88
2023-05-15T20:53:20.094Z,14.80
2023-05-15T20:55:46.831Z,14.60
2023-05-15T20:58:13.336Z,14.66
2023-05-15T21:00:39.778Z,14.47
2023-05-15T21:03:06.528Z,14.46
2023-05-15T21:05:33.189Z,14.36
2023-05-15T21:07:59.775Z,14.41
2023-05-15T21:10:27.461Z,14.27
2023-05-15T21:12:54.127Z,14.31
2023-05-15T21:15:20.661Z,14.25
2023-05-15T21:17:47.182Z,14.13
2023-05-15T21:20:13.684Z,14.17
2023-05-15T21:22:40.143Z,14.14
2023-05-15T21:25:07.073Z,14.01
2023-05-15T21:27:33.554Z,13.95
2023-05-15T21:30:00.089Z,13.80
2023-05-15T21:32:27.624Z,13.98
2023-05-15T21:34:54.098Z,13.85
2023-05-15T21:37:20.575Z,13.76
2023-05-15T21:39:47.034Z,13.85
2023-05-15T21:42:13.480Z,13.79
2023-05-15T21:44:39.927Z,13.80
2023-05-15T21:47:06.825Z,13.88
2023-05-15T21:49:33.315Z,13.90
2023-05-15T21:51:59.870Z,13.65
2023-05-15T21:54:26.381Z,13.53
2023-05-15T21:56:54.854Z,13.64
2023-05-15T21:59:21.622Z,13.51
2023-05-15T22:01:48.565Z,13.38
2023-05-15T22:04:15.120Z,13.33
2023-05-15T22:06:41.639Z,13.38
2023-05-15T22:09:08.370Z,13.32
2023-05-15T22:11:34.803Z,13.22
2023-05-15T22:14:01.269Z,13.20
2023-05-15T22:16:27.863Z,13.20
2023-05-15T22:18:55.203Z,12.96
2023-05-15T22:21:21.734Z,12.86
2023-05-15T22:23:48.390Z,12.88
2023-05-15T22:26:15.041Z,12.81
2023-05-15T22:28:42.087Z,12.94
2023-05-15T22:31:08.664Z,12.71
2023-05-15T22:33:35.561Z,12.72
2023-05-15T22:36:02.338Z,12.47
2023-05-15T22:38:29.286Z,12.43
2023-05-15T22:40:55.768Z,12.34
2023-05-15T22:43:22.563Z,12.49
2023-05-15T22:45:49.357Z,12.44
2023-05-15T22:48:15.887Z,12.28
2023-05-15T22:50:43.721Z,12.49
2023-05-15T22:53:10.268Z,12.34
2023-05-15T22:55:36.686Z,12.36
2023-05-15T22:58:03.961Z,12.44
2023-05-15T23:00:31.034Z,12.44
2023-05-15T23:02:57.976Z,12.43
2023-05-15T23:05:24.971Z,12.57
2023-05-15T23:07:52.675Z,12.49
2023-05-15T23:10:19.512Z,12.39
2023-05-15T23:12:46.371Z,12.30
2023-05-15T23:15:13.634Z,12.26
2023-05-15T23:17:40.542Z,12.03
2023-05-15T23:20:10.450Z,11.98
2023-05-15T23:22:37.112Z,12.11
2023-05-15T23:25:03.965Z,11.95
2023-05-15T23:27:30.499Z,12.11
2023-05-15T23:29:56.972Z,12.28
2023-05-15T23:32:24.519Z,12.24
2023-05-15T23:34:52.070Z,12.23
2023-05-15T23:37:18.912Z,12.10
2023-05-15T23:39:45.564Z,11.96
2023-05-15T23:42:12.486Z,11.87
2023-05-15T23:44:39.159Z,11.97
2023-05-15T23:47:06.646Z,12.02
2023-05-15T23:49:33.607Z,11.81
2023-05-15T23:52:00.592Z,11.92
2023-05-15T23:54:27.066Z,11.82
2023-05-15T23:56:55.653Z,11.88
2023-05-15T23:59:22.091Z,12.01
